Time;durP1;ratioP1;P1;durP2;ratioP2;P2;SDS_P1;SDS_P2;PMS_P1;PMS_P2;Temp;Humidity;BMP_temperature;BMP_pressure;BME280_temperature;BME280_humidity;BME280_pressure;Samples;Min_cycle;Max_cycle;Signal;HPM_P1;HPM_P2
2021/08/19 00:01:57;;;;;;;;;;;;;;;20.10;50.65;100354.47;5116331;28;970;-54
2021/08/19 00:04:23;;;;;;;;;;;;;;;20.14;48.09;100360.19;5116368;28;827;-47
2021/08/19 00:06:48;;;;;;;;;;;;;;;19.65;46.77;100355.03;5116211;28;1232;-57
2021/08/19 00:09:14;;;;;;;;;;;;;;;19.73;44.57;100345.25;5116262;28;939;-50
2021/08/19 00:11:39;;;;;;;;;;;;;;;19.46;45.07;100341.34;5116090;28;820;-53
2021/08/19 00:14:05;;;;;;;;;;;;;;;19.46;46.08;100337.75;5116365;28;858;-54
2021/08/19 00:16:30;;;;;;;;;;;;;;;19.52;47.29;100355.84;5116794;28;1914;-53
2021/08/19 00:18:55;;;;;;;;;;;;;;;19.81;47.70;100358.38;5116026;28;838;-48
2021/08/19 00:21:21;;;;;;;;;;;;;;;19.95;48.94;100355.63;5116256;28;794;-54
2021/08/19 00:23:46;;;;;;;;;;;;;;;19.83;51.66;100345.06;5116209;28;759;-55
2021/08/19 00:26:12;;;;;;;;;;;;;;;20.24;52.57;100339.84;5116390;28;743;-43
2021/08/19 00:28:37;;;;;;;;;;;;;;;20.28;53.89;100327.06;5116098;28;824;-53
2021/08/19 00:31:02;;;;;;;;;;;;;;;20.49;54.69;100321.88;5116281;28;814;-51
2021/08/19 00:33:29;;;;;;;;;;;;;;;20.71;54.97;100321.13;5115977;28;1001;-46
2021/08/19 00:35:54;;;;;;;;;;;;;;;20.90;55.00;100315.44;5116212;28;1953;-50
2021/08/19 00:38:20;;;;;;;;;;;;;;;20.87;55.68;100320.75;5116047;28;507;-54
2021/08/19 00:40:46;;;;;;;;;;;;;;;20.92;55.83;100317.88;5097220;28;943;-49
2021/08/19 00:43:11;;;;;;;;;;;;;;;21.01;56.24;100318.75;5097861;28;759;-56
2021/08/19 00:45:37;;;;;;;;;;;;;;;21.08;56.44;100321.88;5116298;28;795;-44
2021/08/19 00:48:02;;;;;;;;;;;;;;;21.07;55.82;100320.25;5115786;28;1029;-44
2021/08/19 00:50:28;;;;;;;;;;;;;;;20.67;54.98;100322.84;5115605;28;779;-45
2021/08/19 00:52:54;;;;;;;;;;;;;;;20.72;51.21;100331.06;5116250;28;820;-47
2021/08/19 00:55:19;;;;;;;;;;;;;;;20.50;49.34;100346.44;5116116;28;724;-54
2021/08/19 00:57:44;;;;;;;;;;;;;;;19.87;47.78;100338.97;5115757;28;1909;-53
2021/08/19 01:00:10;;;;;;;;;;;;;;;19.51;46.19;100347.88;5116961;28;736;-54
2021/08/19 01:02:46;;;;;;;;;;;;;;;19.51;45.41;100353.41;5119490;28;1021;-45
2021/08/19 01:05:13;;;;;;;;;;;;;;;19.81;46.61;100354.78;5119811;28;848;-55
2021/08/19 01:07:39;;;;;;;;;;;;;;;19.97;49.36;100361.63;5119422;28;1317;-53
2021/08/19 01:10:05;;;;;;;;;;;;;;;20.12;51.30;100352.22;5119603;28;855;-54
2021/08/19 01:12:30;;;;;;;;;;;;;;;20.51;52.42;100361.88;5100465;28;892;-45
2021/08/19 01:14:56;;;;;;;;;;;;;;;20.49;54.41;100366.88;5100589;28;838;-54
2021/08/19 01:17:22;;;;;;;;;;;;;;;20.63;55.57;100382.63;5119290;28;1906;-55
2021/08/19 01:19:47;;;;;;;;;;;;;;;20.89;55.81;100377.38;5118975;28;744;-53
2021/08/19 01:22:14;;;;;;;;;;;;;;;21.05;56.16;100379.75;5100775;28;799;-53
2021/08/19 01:24:40;;;;;;;;;;;;;;;20.87;57.01;100376.03;5119505;28;780;-45
2021/08/19 01:27:10;;;;;;;;;;;;;;;20.91;56.00;100393.63;5119182;28;760;-54
2021/08/19 01:29:35;;;;;;;;;;;;;;;20.70;53.91;100391.31;5100045;28;817;-54
2021/08/19 01:32:01;;;;;;;;;;;;;;;20.68;51.16;100399.94;5119230;28;1001;-51
2021/08/19 01:34:27;;;;;;;;;;;;;;;20.25;49.60;100396.69;5119297;28;826;-54
2021/08/19 01:36:52;;;;;;;;;;;;;;;19.95;48.17;100401.69;5119441;28;1901;-55
2021/08/19 01:39:18;;;;;;;;;;;;;;;19.74;47.25;100396.53;5119348;28;791;-54
2021/08/19 01:41:43;;;;;;;;;;;;;;;19.78;46.70;100410.53;5118735;28;755;-53
2021/08/19 01:44:09;;;;;;;;;;;;;;;19.78;48.43;100405.84;5118939;28;759;-45
2021/08/19 01:46:35;;;;;;;;;;;;;;;20.09;49.93;100408.06;5118811;28;1025;-53
2021/08/19 01:49:02;;;;;;;;;;;;;;;20.25;51.80;100397.50;5118431;28;783;-50
2021/08/19 01:51:27;;;;;;;;;;;;;;;20.47;52.63;100404.25;5118728;28;747;-44
2021/08/19 01:53:53;;;;;;;;;;;;;;;20.55;53.76;100409.03;5118734;28;743;-54
2021/08/19 01:56:19;;;;;;;;;;;;;;;20.55;54.61;100413.75;5118515;28;1969;-53
2021/08/19 01:58:45;;;;;;;;;;;;;;;20.64;55.12;100420.19;5118773;28;763;-53
2021/08/19 02:01:10;;;;;;;;;;;;;;;20.68;55.58;100429.50;5118706;28;771;-55
2021/08/19 02:03:36;;;;;;;;;;;;;;;20.92;55.55;100433.97;5118082;28;752;-55
2021/08/19 02:06:01;;;;;;;;;;;;;;;21.07;55.41;100447.44;5118757;28;788;-45
2021/08/19 02:08:27;;;;;;;;;;;;;;;21.00;56.08;100458.09;5100099;28;1157;-47
2021/08/19 02:10:53;;;;;;;;;;;;;;;20.97;56.43;100458.69;5117522;28;803;-55
2021/08/19 02:13:18;;;;;;;;;;;;;;;21.07;55.82;100465.94;5117655;28;827;-54
2021/08/19 02:15:44;;;;;;;;;;;;;;;21.13;55.46;100473.00;5118543;28;1956;-50
2021/08/19 02:18:09;;;;;;;;;;;;;;;21.16;55.38;100470.41;5118138;28;954;-45
2021/08/19 02:20:35;;;;;;;;;;;;;;;21.33;54.80;100477.22;5118181;28;835;-55
2021/08/19 02:23:00;;;;;;;;;;;;;;;21.33;53.53;100472.50;5118256;28;827;-45
2021/08/19 02:25:26;;;;;;;;;;;;;;;20.86;52.29;100474.72;5117730;28;819;-49
2021/08/19 02:27:51;;;;;;;;;;;;;;;20.65;50.07;100468.75;5118171;28;839;-53
2021/08/19 02:30:17;;;;;;;;;;;;;;;20.15;49.08;100456.50;5118233;28;839;-56
2021/08/19 02:32:42;;;;;;;;;;;;;;;19.76;48.12;100477.06;5117189;28;1021;-47
2021/08/19 02:35:08;;;;;;;;;;;;;;;19.77;47.07;100477.88;5118203;28;755;-44
2021/08/19 02:37:33;;;;;;;;;;;;;;;19.46;46.81;100478.38;5117778;28;1918;-53
2021/08/19 02:39:59;;;;;;;;;;;;;;;19.45;47.36;100476.75;5117969;28;823;-43
2021/08/19 02:42:24;;;;;;;;;;;;;;;19.66;47.50;100464.25;5117859;28;795;-55
2021/08/19 02:44:49;;;;;;;;;;;;;;;19.55;48.67;100464.75;5117538;28;827;-55
2021/08/19 02:47:15;;;;;;;;;;;;;;;19.74;49.04;100460.00;5117363;28;966;-53
2021/08/19 02:49:40;;;;;;;;;;;;;;;19.56;49.95;100463.59;5097591;28;874;-45
2021/08/19 02:52:06;;;;;;;;;;;;;;;19.83;49.88;100462.91;5097305;28;815;-54
2021/08/19 02:54:31;;;;;;;;;;;;;;;19.90;50.63;100468.03;5096998;28;756;-53
2021/08/19 02:56:57;;;;;;;;;;;;;;;20.13;51.65;100468.97;5097245;28;1914;-46
2021/08/19 02:59:22;;;;;;;;;;;;;;;20.20;53.29;100474.91;5096689;28;859;-47
2021/08/19 03:01:47;;;;;;;;;;;;;;;20.38;53.81;100470.41;5101711;28;974;-55
2021/08/19 03:04:13;;;;;;;;;;;;;;;20.43;54.63;100475.84;5117522;28;759;-44
2021/08/19 03:06:38;;;;;;;;;;;;;;;20.65;54.71;100466.84;5117170;28;1068;-45
2021/08/19 03:09:04;;;;;;;;;;;;;;;20.68;54.99;100449.66;5117652;28;743;-56
2021/08/19 03:11:29;;;;;;;;;;;;;;;20.85;55.20;100440.72;5116741;28;775;-53
2021/08/19 03:13:54;;;;;;;;;;;;;;;20.92;55.38;100445.81;5118060;28;744;-50
2021/08/19 03:16:20;;;;;;;;;;;;;;;20.93;55.85;100446.63;5117339;28;1913;-53
2021/08/19 03:18:45;;;;;;;;;;;;;;;20.97;55.94;100456.78;5116714;28;763;-53
2021/08/19 03:21:11;;;;;;;;;;;;;;;20.98;55.79;100457.59;5117198;28;910;-53
2021/08/19 03:23:37;;;;;;;;;;;;;;;20.99;56.03;100460.03;5116721;28;744;-45
2021/08/19 03:26:05;;;;;;;;;;;;;;;21.20;55.53;100463.13;5116657;28;788;-47
2021/08/19 03:28:31;;;;;;;;;;;;;;;21.30;55.44;100447.44;5117413;28;763;-45
2021/08/19 03:30:58;;;;;;;;;;;;;;;21.30;54.52;100461.28;5117103;28;755;-47
2021/08/19 03:33:23;;;;;;;;;;;;;;;20.82;52.86;100463.44;5116189;28;1002;-55
2021/08/19 03:35:48;;;;;;;;;;;;;;;20.45;50.65;100487.38;5117284;28;1975;-44
2021/08/19 03:38:14;;;;;;;;;;;;;;;19.74;48.80;100490.34;5116730;28;784;-51
2021/08/19 03:40:40;;;;;;;;;;;;;;;19.62;47.20;100496.31;5116609;28;795;-45
2021/08/19 03:43:06;;;;;;;;;;;;;;;19.56;44.85;100493.94;5116778;28;755;-56
2021/08/19 03:45:32;;;;;;;;;;;;;;;19.44;44.09;100500.72;5117306;28;767;-56
2021/08/19 03:47:58;;;;;;;;;;;;;;;19.11;46.10;100506.19;5116393;28;954;-56
2021/08/19 03:50:24;;;;;;;;;;;;;;;19.59;48.42;100504.38;5097917;28;824;-49
2021/08/19 03:52:50;;;;;;;;;;;;;;;19.85;51.44;100506.75;5101674;28;1500;-61
2021/08/19 03:55:16;;;;;;;;;;;;;;;20.13;53.61;100511.22;5110492;28;823;-50
2021/08/19 03:57:41;;;;;;;;;;;;;;;20.62;54.12;100503.38;5096337;28;1963;-59
2021/08/19 04:00:07;;;;;;;;;;;;;;;20.63;55.76;100501.41;5096124;28;1468;-60
2021/08/19 04:02:39;;;;;;;;;;;;;;;20.83;56.19;100506.56;5107843;28;955;-60
2021/08/19 04:05:04;;;;;;;;;;;;;;;21.12;56.43;100507.31;5116944;28;775;-58
2021/08/19 04:07:30;;;;;;;;;;;;;;;21.30;56.49;100522.91;5101601;28;1171;-57
2021/08/19 04:09:55;;;;;;;;;;;;;;;21.44;56.74;100538.66;5096123;28;855;-52
2021/08/19 04:12:21;;;;;;;;;;;;;;;21.36;57.72;100531.91;5096279;28;752;-62
2021/08/19 04:14:47;;;;;;;;;;;;;;;21.13;56.90;100528.31;5096036;28;843;-51
2021/08/19 04:17:12;;;;;;;;;;;;;;;21.03;53.41;100543.97;5105234;28;1906;-59
2021/08/19 04:19:38;;;;;;;;;;;;;;;20.39;51.07;100538.34;5116534;28;812;-60
2021/08/19 04:22:03;;;;;;;;;;;;;;;19.92;48.18;100546.63;5116534;28;822;-61
2021/08/19 04:24:29;;;;;;;;;;;;;;;19.59;46.28;100543.00;5116167;28;826;-61
2021/08/19 04:26:54;;;;;;;;;;;;;;;19.24;45.46;100539.66;5116534;28;778;-60
2021/08/19 04:29:19;;;;;;;;;;;;;;;19.58;46.88;100538.59;5116184;28;819;-61
2021/08/19 04:31:45;;;;;;;;;;;;;;;19.99;50.20;100541.53;5115957;28;931;-60
2021/08/19 04:34:10;;;;;;;;;;;;;;;20.26;52.22;100539.13;5097908;28;1288;-60
2021/08/19 04:36:36;;;;;;;;;;;;;;;20.55;53.80;100536.09;5119993;28;1910;-44
2021/08/19 04:39:01;;;;;;;;;;;;;;;20.74;54.77;100530.50;5120181;28;755;-46
2021/08/19 04:41:27;;;;;;;;;;;;;;;20.85;55.85;100528.34;5120025;28;878;-61
2021/08/19 04:43:52;;;;;;;;;;;;;;;20.93;56.60;100524.03;5120323;28;755;-61
2021/08/19 04:46:17;;;;;;;;;;;;;;;21.23;56.49;100527.25;5120396;28;1017;-61
2021/08/19 04:48:43;;;;;;;;;;;;;;;21.45;56.82;100529.25;5120516;28;783;-61
2021/08/19 04:51:08;;;;;;;;;;;;;;;21.55;57.02;100523.50;5120586;28;793;-59
2021/08/19 04:53:34;;;;;;;;;;;;;;;21.52;57.43;100527.69;5119511;28;850;-60
2021/08/19 04:55:59;;;;;;;;;;;;;;;21.72;55.94;100528.31;5120104;28;1973;-62
2021/08/19 04:58:27;;;;;;;;;;;;;;;21.20;53.56;100526.72;5120008;28;882;-62
2021/08/19 05:00:52;;;;;;;;;;;;;;;20.86;51.10;100530.00;5120116;28;767;-61
2021/08/19 05:03:18;;;;;;;;;;;;;;;20.44;48.50;100531.88;5119832;28;1017;-60
2021/08/19 05:05:43;;;;;;;;;;;;;;;19.78;47.05;100534.69;5119810;28;826;-61
2021/08/19 05:08:08;;;;;;;;;;;;;;;19.52;46.12;100535.09;5118956;28;1188;-60
2021/08/19 05:10:34;;;;;;;;;;;;;;;19.60;46.12;100544.63;5119719;28;767;-58
2021/08/19 05:12:59;;;;;;;;;;;;;;;19.70;46.89;100540.88;5119867;28;816;-61
2021/08/19 05:15:25;;;;;;;;;;;;;;;19.96;47.96;100547.66;5119180;28;795;-51
2021/08/19 05:17:50;;;;;;;;;;;;;;;19.95;49.71;100551.53;5119282;28;2257;-61
2021/08/19 05:20:16;;;;;;;;;;;;;;;20.13;50.21;100547.09;5119519;28;794;-60
2021/08/19 05:22:41;;;;;;;;;;;;;;;20.28;50.83;100553.47;5119232;28;727;-48
2021/08/19 05:25:07;;;;;;;;;;;;;;;20.33;51.20;100559.69;5119481;28;811;-49
2021/08/19 05:27:32;;;;;;;;;;;;;;;20.35;51.61;100559.41;5119469;28;747;-61
2021/08/19 05:29:58;;;;;;;;;;;;;;;20.20;52.50;100559.69;5118962;28;874;-59
2021/08/19 05:32:23;;;;;;;;;;;;;;;20.08;53.38;100549.94;5119205;28;1009;-59
2021/08/19 05:34:48;;;;;;;;;;;;;;;20.38;52.70;100552.44;5119197;28;819;-61
2021/08/19 05:37:14;;;;;;;;;;;;;;;20.47;52.52;100545.09;5118755;28;1972;-55
2021/08/19 05:39:39;;;;;;;;;;;;;;;20.54;52.87;100555.72;5119361;28;795;-57
2021/08/19 05:42:05;;;;;;;;;;;;;;;20.35;53.89;100570.44;5119201;28;882;-64
2021/08/19 05:44:30;;;;;;;;;;;;;;;20.27;54.33;100565.63;5119090;28;874;-63
2021/08/19 05:46:56;;;;;;;;;;;;;;;19.92;55.12;100567.88;5118802;28;958;-62
2021/08/19 05:49:21;;;;;;;;;;;;;;;19.99;55.31;100568.31;5118820;28;755;-44
2021/08/19 05:51:46;;;;;;;;;;;;;;;20.16;54.55;100590.66;5119399;28;755;-52
2021/08/19 05:54:12;;;;;;;;;;;;;;;19.98;55.38;100586.00;5119013;28;783;-63
2021/08/19 05:56:37;;;;;;;;;;;;;;;19.92;55.45;100581.66;5118607;28;1978;-44
2021/08/19 05:59:03;;;;;;;;;;;;;;;19.92;55.39;100578.91;5118619;28;815;-45
2021/08/19 06:01:28;;;;;;;;;;;;;;;19.96;55.31;100579.94;5118269;28;1009;-46
2021/08/19 06:03:53;;;;;;;;;;;;;;;20.02;54.99;100584.28;5118753;28;843;-46
2021/08/19 06:06:19;;;;;;;;;;;;;;;20.00;55.24;100587.31;5118806;28;1033;-61
2021/08/19 06:08:44;;;;;;;;;;;;;;;20.05;54.81;100589.19;5118121;28;1271;-55
2021/08/19 06:11:10;;;;;;;;;;;;;;;19.98;55.21;100583.25;5118641;28;855;-44
2021/08/19 06:13:35;;;;;;;;;;;;;;;19.96;55.44;100585.47;5118694;28;898;-44
2021/08/19 06:16:00;;;;;;;;;;;;;;;20.02;55.04;100588.97;5118026;28;1988;-46
2021/08/19 06:18:26;;;;;;;;;;;;;;;20.13;54.79;100591.25;5118305;28;1021;-56
2021/08/19 06:20:51;;;;;;;;;;;;;;;20.03;55.26;100599.69;5118821;28;847;-55
2021/08/19 06:23:17;;;;;;;;;;;;;;;20.05;55.27;100603.00;5117892;28;752;-45
2021/08/19 06:25:42;;;;;;;;;;;;;;;20.28;54.65;100603.97;5118482;28;802;-46
2021/08/19 06:28:08;;;;;;;;;;;;;;;20.21;54.92;100599.97;5118303;28;814;-43
2021/08/19 06:30:34;;;;;;;;;;;;;;;20.20;55.15;100595.56;5117947;28;727;-61
2021/08/19 06:33:02;;;;;;;;;;;;;;;20.17;55.18;100600.59;5117914;28;962;-45
2021/08/19 06:35:28;;;;;;;;;;;;;;;20.18;55.13;100595.88;5118144;28;751;-45
2021/08/19 06:37:53;;;;;;;;;;;;;;;20.08;55.54;100602.38;5117309;28;1905;-62
2021/08/19 06:40:19;;;;;;;;;;;;;;;20.18;55.54;100604.16;5118173;28;763;-44
2021/08/19 06:42:44;;;;;;;;;;;;;;;20.28;55.04;100600.41;5118089;28;570;-54
2021/08/19 06:45:10;;;;;;;;;;;;;;;20.24;55.17;100607.63;5117376;28;839;-44
2021/08/19 06:47:35;;;;;;;;;;;;;;;20.18;55.44;100604.16;5117598;28;1013;-63
2021/08/19 06:50:01;;;;;;;;;;;;;;;20.27;55.52;100612.56;5117790;28;802;-64
2021/08/19 06:52:26;;;;;;;;;;;;;;;20.16;55.78;100604.47;5117441;28;779;-51
2021/08/19 06:54:52;;;;;;;;;;;;;;;20.34;55.42;100612.97;5117890;28;787;-61
2021/08/19 06:57:18;;;;;;;;;;;;;;;20.34;55.40;100604.69;5117320;28;1897;-51
2021/08/19 06:59:43;;;;;;;;;;;;;;;20.26;55.90;100611.75;5117021;28;846;-58
2021/08/19 07:02:09;;;;;;;;;;;;;;;20.35;55.73;100614.63;5117170;28;1032;-58
2021/08/19 07:04:34;;;;;;;;;;;;;;;20.48;55.50;100613.84;5118331;28;746;-53
2021/08/19 07:07:00;;;;;;;;;;;;;;;20.42;55.93;100603.19;5116888;28;1125;-45
2021/08/19 07:09:25;;;;;;;;;;;;;;;20.32;56.33;100607.75;5117645;28;839;-59
2021/08/19 07:11:50;;;;;;;;;;;;;;;20.37;55.96;100606.88;5117479;28;799;-59
2021/08/19 07:14:16;;;;;;;;;;;;;;;20.45;55.82;100614.44;5117067;28;811;-62
2021/08/19 07:16:41;;;;;;;;;;;;;;;20.31;56.23;100614.44;5116986;28;2011;-61
2021/08/19 07:19:07;;;;;;;;;;;;;;;20.24;56.26;100613.97;5116859;28;820;-45
2021/08/19 07:21:32;;;;;;;;;;;;;;;20.42;55.84;100612.28;5116974;28;743;-58
2021/08/19 07:23:58;;;;;;;;;;;;;;;20.37;56.06;100614.31;5117661;28;736;-46
2021/08/19 07:26:24;;;;;;;;;;;;;;;20.39;55.69;100621.19;5116921;28;791;-58
2021/08/19 07:28:49;;;;;;;;;;;;;;;20.27;55.28;100618.91;5116782;28;768;-47
2021/08/19 07:31:15;;;;;;;;;;;;;;;20.18;54.81;100621.53;5116972;28;941;-58
2021/08/19 07:33:40;;;;;;;;;;;;;;;20.08;54.48;100621.69;5117139;28;720;-60
2021/08/19 07:36:06;;;;;;;;;;;;;;;19.98;54.48;100619.94;5116562;28;1910;-43
2021/08/19 07:38:32;;;;;;;;;;;;;;;19.91;54.20;100625.00;5117391;28;747;-43
2021/08/19 07:40:57;;;;;;;;;;;;;;;19.90;53.82;100625.31;5116883;28;736;-46
2021/08/19 07:43:23;;;;;;;;;;;;;;;20.04;53.23;100628.13;5116752;28;759;-46
2021/08/19 07:45:48;;;;;;;;;;;;;;;19.85;53.49;100625.38;5117555;28;752;-44
2021/08/19 07:48:14;;;;;;;;;;;;;;;19.82;53.53;100632.31;5116621;28;1013;-57
2021/08/19 07:50:39;;;;;;;;;;;;;;;19.91;53.01;100637.97;5116628;28;804;-47
2021/08/19 07:53:05;;;;;;;;;;;;;;;19.86;52.87;100638.06;5116626;28;846;-60
2021/08/19 07:55:30;;;;;;;;;;;;;;;19.78;53.10;100643.13;5116727;28;787;-58
2021/08/19 07:57:56;;;;;;;;;;;;;;;19.71;53.20;100633.56;5116510;28;1910;-55
2021/08/19 08:00:22;;;;;;;;;;;;;;;19.75;53.04;100640.13;5116726;28;877;-46
2021/08/19 08:02:48;;;;;;;;;;;;;;;19.67;52.99;100636.13;5116402;28;961;-47
2021/08/19 08:05:13;;;;;;;;;;;;;;;19.69;53.24;100636.63;5116812;28;831;-60
2021/08/19 08:07:39;;;;;;;;;;;;;;;19.64;53.09;100640.28;5116048;28;1205;-46
2021/08/19 08:10:05;;;;;;;;;;;;;;;19.76;52.66;100639.81;5119835;28;789;-56
2021/08/19 08:12:30;;;;;;;;;;;;;;;19.66;52.89;100648.25;5121022;28;823;-53
2021/08/19 08:14:56;;;;;;;;;;;;;;;19.66;53.06;100642.75;5102357;28;1373;-60
2021/08/19 08:17:21;;;;;;;;;;;;;;;19.60;53.07;100639.25;5120504;28;1913;-59
2021/08/19 08:19:47;;;;;;;;;;;;;;;19.65;53.08;100641.91;5117511;28;1300;-46
2021/08/19 08:22:12;;;;;;;;;;;;;;;19.74;52.59;100644.84;5107434;28;815;-46
2021/08/19 08:24:39;;;;;;;;;;;;;;;19.56;52.82;100634.59;5100414;28;839;-46
2021/08/19 08:27:04;;;;;;;;;;;;;;;19.63;52.80;100638.63;5102404;28;1033;-53
2021/08/19 08:29:31;;;;;;;;;;;;;;;19.53;52.91;100637.94;5120380;28;815;-58
2021/08/19 08:31:58;;;;;;;;;;;;;;;19.54;52.67;100631.31;5120160;28;997;-52
2021/08/19 08:34:23;;;;;;;;;;;;;;;19.54;52.50;100645.13;5120534;28;831;-63
2021/08/19 08:36:49;;;;;;;;;;;;;;;19.40;53.19;100631.22;5120323;28;1910;-61
2021/08/19 08:39:16;;;;;;;;;;;;;;;19.47;53.68;100632.53;5120402;28;799;-60
2021/08/19 08:41:41;;;;;;;;;;;;;;;19.46;54.49;100622.59;5102160;28;1297;-44
2021/08/19 08:44:07;;;;;;;;;;;;;;;19.52;54.47;100628.03;5120400;28;803;-45
2021/08/19 08:46:33;;;;;;;;;;;;;;;19.50;53.99;100622.81;5101634;28;1330;-60
2021/08/19 08:48:58;;;;;;;;;;;;;;;19.63;53.39;100624.84;5120448;28;759;-44
2021/08/19 08:51:24;;;;;;;;;;;;;;;19.64;53.34;100631.16;5101634;28;1234;-59
2021/08/19 08:53:50;;;;;;;;;;;;;;;19.65;52.95;100619.84;5120269;28;854;-57
2021/08/19 08:56:15;;;;;;;;;;;;;;;19.71;52.85;100628.03;5119887;28;1913;-59
2021/08/19 08:58:41;;;;;;;;;;;;;;;19.56;53.03;100623.56;5119615;28;871;-57
2021/08/19 09:01:06;;;;;;;;;;;;;;;19.51;53.38;100620.91;5120176;28;859;-55
2021/08/19 09:03:32;;;;;;;;;;;;;;;19.51;53.27;100612.63;5119510;28;1012;-58
2021/08/19 09:05:57;;;;;;;;;;;;;;;19.47;53.27;100610.47;5120310;28;740;-62
2021/08/19 09:08:25;;;;;;;;;;;;;;;19.40;53.41;100609.97;5119542;28;999;-51
2021/08/19 09:10:51;;;;;;;;;;;;;;;19.38;53.60;100619.69;5119726;28;795;-62
2021/08/19 09:13:17;;;;;;;;;;;;;;;19.52;53.26;100609.56;5119634;28;735;-44
2021/08/19 09:15:43;;;;;;;;;;;;;;;19.45;53.04;100618.19;5119956;28;739;-56
2021/08/19 09:18:08;;;;;;;;;;;;;;;19.45;53.13;100615.44;5118863;28;1976;-63
2021/08/19 09:20:35;;;;;;;;;;;;;;;19.44;53.80;100602.75;5118821;28;783;-63
2021/08/19 09:23:01;;;;;;;;;;;;;;;19.46;54.17;100608.81;5119283;28;860;-45
2021/08/19 09:25:27;;;;;;;;;;;;;;;19.52;53.91;100608.72;5101748;28;759;-47
2021/08/19 09:28:09;;;;;;;;;;;;;;;19.48;53.83;100608.50;5119426;28;846;-61
2021/08/19 09:30:34;;;;;;;;;;;;;;;19.51;53.84;100607.09;5119459;28;885;-56
2021/08/19 09:33:03;;;;;;;;;;;;;;;19.53;53.35;100615.88;5119416;28;974;-59
2021/08/19 09:35:29;;;;;;;;;;;;;;;19.47;53.57;100601.34;5119163;28;839;-60
2021/08/19 09:37:55;;;;;;;;;;;;;;;19.54;53.49;100600.97;5118667;28;1980;-59
2021/08/19 09:40:20;;;;;;;;;;;;;;;19.45;53.76;100603.59;5119316;28;760;-58
2021/08/19 09:42:46;;;;;;;;;;;;;;;19.57;53.28;100603.97;5100801;28;1180;-60
2021/08/19 09:45:21;;;;;;;;;;;;;;;19.45;53.54;100604.41;5119061;28;894;-64
2021/08/19 09:47:46;;;;;;;;;;;;;;;19.39;53.55;100605.59;5119028;28;998;-43
2021/08/19 09:50:15;;;;;;;;;;;;;;;19.48;53.18;100606.56;5118482;28;752;-49
2021/08/19 09:52:40;;;;;;;;;;;;;;;19.47;53.11;100590.31;5119068;28;787;-58
2021/08/19 09:55:21;;;;;;;;;;;;;;;19.54;53.09;100601.78;5119086;28;795;-59
2021/08/19 09:57:47;;;;;;;;;;;;;;;19.41;53.52;100597.84;5118306;28;1905;-47
2021/08/19 10:00:25;;;;;;;;;;;;;;;19.42;53.40;100595.91;5118913;28;814;-42
2021/08/19 10:02:50;;;;;;;;;;;;;;;19.57;53.14;100605.91;5118424;28;958;-43
2021/08/19 10:05:16;;;;;;;;;;;;;;;19.27;53.74;100597.75;5100599;28;791;-61
2021/08/19 10:07:41;;;;;;;;;;;;;;;19.28;53.62;100593.88;5100565;28;1210;-64
2021/08/19 10:10:07;;;;;;;;;;;;;;;19.40;53.53;100584.34;5118618;28;795;-46
2021/08/19 10:12:32;;;;;;;;;;;;;;;19.32;53.73;100577.56;5100657;28;798;-64
2021/08/19 10:14:58;;;;;;;;;;;;;;;19.49;53.35;100583.41;5100238;28;792;-44
2021/08/19 10:17:23;;;;;;;;;;;;;;;19.70;52.93;100582.25;5099899;28;1914;-62
2021/08/19 10:19:48;;;;;;;;;;;;;;;19.55;53.15;100578.63;5099552;28;931;-60
2021/08/19 10:22:22;;;;;;;;;;;;;;;19.53;53.26;100578.13;5100659;28;751;-65
2021/08/19 10:24:53;;;;;;;;;;;;;;;19.52;53.33;100586.66;5100644;28;886;-44
2021/08/19 10:27:20;;;;;;;;;;;;;;;19.54;53.10;100584.44;5099032;28;937;-62
2021/08/19 10:30:03;;;;;;;;;;;;;;;19.50;53.23;100584.19;5118251;28;871;-63
2021/08/19 10:32:29;;;;;;;;;;;;;;;19.36;53.72;100584.13;5116914;28;1088;-45
2021/08/19 10:34:54;;;;;;;;;;;;;;;19.40;53.67;100585.16;5118359;28;763;-62
2021/08/19 10:37:20;;;;;;;;;;;;;;;19.35;53.69;100582.50;5118089;28;1917;-61
2021/08/19 10:39:45;;;;;;;;;;;;;;;19.46;53.67;100583.16;5118101;28;817;-50
2021/08/19 10:42:11;;;;;;;;;;;;;;;19.58;53.18;100579.97;5117577;28;839;-61
2021/08/19 10:44:38;;;;;;;;;;;;;;;19.42;53.80;100596.75;5118091;28;755;-62
2021/08/19 10:47:04;;;;;;;;;;;;;;;19.53;53.54;100588.31;5117530;28;962;-65
2021/08/19 10:49:32;;;;;;;;;;;;;;;19.42;53.65;100593.13;5117581;28;1030;-54
2021/08/19 10:52:09;;;;;;;;;;;;;;;19.53;53.39;100589.16;5118041;28;767;-46
2021/08/19 10:54:46;;;;;;;;;;;;;;;19.54;53.27;100589.97;5117540;28;752;-45
2021/08/19 10:57:20;;;;;;;;;;;;;;;19.47;53.39;100590.31;5117434;28;1914;-58
2021/08/19 10:59:54;;;;;;;;;;;;;;;19.56;53.20;100590.47;5117569;28;815;-59
2021/08/19 11:02:39;;;;;;;;;;;;;;;19.51;53.19;100585.03;5117881;28;946;-57
2021/08/19 11:05:05;;;;;;;;;;;;;;;19.42;53.63;100587.63;5117458;28;668;-52
2021/08/19 11:07:49;;;;;;;;;;;;;;;19.46;53.31;100581.25;5116956;28;1010;-58
2021/08/19 11:10:27;;;;;;;;;;;;;;;19.47;53.53;100584.81;5117517;28;736;-57
2021/08/19 11:13:14;;;;;;;;;;;;;;;19.39;53.52;100583.56;5117626;28;807;-47
2021/08/19 11:15:47;;;;;;;;;;;;;;;19.40;53.66;100585.16;5117840;28;813;-56
2021/08/19 11:18:25;;;;;;;;;;;;;;;19.53;53.15;100577.28;5116700;28;1905;-56
2021/08/19 11:20:51;;;;;;;;;;;;;;;19.51;53.31;100577.56;5116953;28;755;-55
2021/08/19 11:23:16;;;;;;;;;;;;;;;19.46;53.33;100574.88;5117519;28;807;-54
2021/08/19 11:25:43;;;;;;;;;;;;;;;19.44;53.57;100575.19;5117459;28;775;-53
2021/08/19 11:28:09;;;;;;;;;;;;;;;19.39;53.72;100575.28;5117119;28;511;-49
2021/08/19 11:30:35;;;;;;;;;;;;;;;19.41;53.54;100578.53;5116651;28;836;-61
2021/08/19 11:33:10;;;;;;;;;;;;;;;19.54;53.03;100565.13;5116382;28;993;-60
2021/08/19 11:35:37;;;;;;;;;;;;;;;19.44;53.24;100564.16;5117277;28;739;-58
2021/08/19 11:38:12;;;;;;;;;;;;;;;19.49;53.17;100572.38;5117005;28;1988;-60
2021/08/19 11:40:38;;;;;;;;;;;;;;;19.41;53.43;100566.72;5116664;28;739;-61
2021/08/19 11:43:22;;;;;;;;;;;;;;;19.28;53.59;100558.06;5117035;28;779;-62
2021/08/19 11:46:02;;;;;;;;;;;;;;;19.48;53.11;100554.16;5116729;28;779;-46
2021/08/19 11:48:28;;;;;;;;;;;;;;;19.36;53.56;100545.53;5116756;28;962;-52
2021/08/19 11:50:54;;;;;;;;;;;;;;;19.44;53.39;100547.63;5116773;28;807;-61
2021/08/19 11:53:20;;;;;;;;;;;;;;;19.32;53.87;100553.59;5117030;28;755;-57
2021/08/19 11:55:45;;;;;;;;;;;;;;;19.48;53.56;100545.91;5116572;28;803;-54
2021/08/19 11:58:13;;;;;;;;;;;;;;;19.43;53.48;100540.47;5116588;28;1988;-58
2021/08/19 12:00:54;;;;;;;;;;;;;;;19.34;53.61;100542.25;5116695;28;823;-61
2021/08/19 12:03:19;;;;;;;;;;;;;;;19.40;53.80;100541.06;5116277;28;973;-57
2021/08/19 12:05:44;;;;;;;;;;;;;;;19.35;53.79;100538.38;5116812;28;807;-60
2021/08/19 12:08:10;;;;;;;;;;;;;;;19.39;53.36;100538.59;5116536;28;1015;-59
2021/08/19 12:10:36;;;;;;;;;;;;;;;19.37;53.49;100538.09;5097720;28;892;-61
2021/08/19 12:13:02;;;;;;;;;;;;;;;19.32;53.87;100542.56;5116758;28;830;-63
2021/08/19 12:15:27;;;;;;;;;;;;;;;19.32;53.72;100539.81;5116713;28;819;-56
2021/08/19 12:18:05;;;;;;;;;;;;;;;19.37;53.76;100533.38;5097206;28;1992;-55
2021/08/19 12:20:31;;;;;;;;;;;;;;;19.36;53.94;100528.97;5117104;28;766;-59
2021/08/19 12:23:13;;;;;;;;;;;;;;;19.36;53.95;100530.94;5116654;28;879;-47
2021/08/19 12:25:38;;;;;;;;;;;;;;;19.44;53.58;100531.06;5116182;28;862;-59
2021/08/19 12:28:10;;;;;;;;;;;;;;;19.45;53.67;100540.97;5116564;28;783;-60
2021/08/19 12:30:35;;;;;;;;;;;;;;;19.44;53.51;100528.31;5116440;28;747;-59
2021/08/19 12:33:04;;;;;;;;;;;;;;;19.49;53.52;100522.72;5116216;28;1017;-60
2021/08/19 12:35:29;;;;;;;;;;;;;;;19.51;53.45;100535.41;5116493;28;759;-52
2021/08/19 12:37:55;;;;;;;;;;;;;;;19.50;53.21;100529.03;5115868;28;1914;-57
2021/08/19 12:40:25;;;;;;;;;;;;;;;19.51;53.33;100530.69;5116252;28;794;-59
2021/08/19 12:42:50;;;;;;;;;;;;;;;19.44;53.44;100525.56;5116200;28;817;-45
2021/08/19 12:45:17;;;;;;;;;;;;;;;19.50;53.51;100529.03;5097969;28;1389;-60
2021/08/19 12:47:46;;;;;;;;;;;;;;;19.40;53.63;100535.53;5115759;28;1009;-56
2021/08/19 12:50:16;;;;;;;;;;;;;;;19.46;53.46;100542.63;5116110;28;739;-61
2021/08/19 12:52:41;;;;;;;;;;;;;;;19.38;53.80;100542.50;5116149;28;1001;-47